createdAt,value
2022-12-06T00:00:22.649Z,4.97
2022-12-06T00:02:50.568Z,5.03
2022-12-06T00:05:18.503Z,5.87
2022-12-06T00:07:46.406Z,5.37
2022-12-06T00:10:14.368Z,4.80
2022-12-06T00:12:42.238Z,4.73
2022-12-06T00:15:10.669Z,5.03
2022-12-06T00:17:43.014Z,4.77
2022-12-06T00:20:12.016Z,6.10
2022-12-06T00:22:45.046Z,6.00
2022-12-06T00:25:12.940Z,4.63
2022-12-06T00:27:40.798Z,6.90
2022-12-06T00:30:10.068Z,7.87
2022-12-06T00:32:39.321Z,5.90
2022-12-06T00:35:08.188Z,5.33
2022-12-06T00:37:36.078Z,4.80
2022-12-06T00:40:04.315Z,4.90
2022-12-06T00:42:32.195Z,4.97
2022-12-06T00:45:00.060Z,4.83
2022-12-06T00:47:27.919Z,5.03
2022-12-06T00:49:57.486Z,4.30
2022-12-06T00:52:25.690Z,4.20
2022-12-06T00:54:53.557Z,3.93
2022-12-06T00:57:21.437Z,3.60
2022-12-06T00:59:49.283Z,4.13
2022-12-06T01:02:17.186Z,3.77
2022-12-06T01:04:45.075Z,3.67
2022-12-06T01:07:14.338Z,4.00
2022-12-06T01:09:42.470Z,3.07
2022-12-06T01:12:10.245Z,3.30
2022-12-06T01:14:38.033Z,3.10
2022-12-06T01:17:05.904Z,2.80
2022-12-06T01:19:33.731Z,3.00
2022-12-06T01:22:01.555Z,2.57
2022-12-06T01:24:30.730Z,2.73
2022-12-06T01:26:58.557Z,2.70
2022-12-06T01:29:26.364Z,2.37
2022-12-06T01:31:54.162Z,2.50
2022-12-06T01:34:21.987Z,2.47
2022-12-06T01:36:50.839Z,2.23
2022-12-06T01:39:18.675Z,2.43
2022-12-06T01:41:47.909Z,2.13
2022-12-06T01:44:40.215Z,2.10
2022-12-06T01:47:14.306Z,2.10
2022-12-06T01:49:43.358Z,1.70
2022-12-06T01:52:14.160Z,1.73
2022-12-06T01:54:42.274Z,2.37
2022-12-06T01:57:14.403Z,2.07
2022-12-06T01:59:42.377Z,2.17
2022-12-06T02:02:10.558Z,1.90
2022-12-06T02:04:39.906Z,1.73
2022-12-06T02:07:08.954Z,2.27
2022-12-06T02:09:37.838Z,2.03
2022-12-06T02:12:07.411Z,2.27
2022-12-06T02:14:36.778Z,1.93
2022-12-06T02:17:21.523Z,2.13
2022-12-06T02:20:05.681Z,1.93
2022-12-06T02:22:51.503Z,2.00
2022-12-06T02:25:43.579Z,1.80
2022-12-06T02:28:27.395Z,2.00
2022-12-06T02:31:05.020Z,2.10
2022-12-06T02:33:39.664Z,1.73
2022-12-06T02:36:13.461Z,1.90
2022-12-06T02:38:47.754Z,1.70
2022-12-06T02:41:22.741Z,1.80
2022-12-06T02:43:55.702Z,1.90
2022-12-06T02:46:29.623Z,1.40
2022-12-06T02:48:59.850Z,1.73
2022-12-06T02:51:30.033Z,1.50
2022-12-06T02:54:01.760Z,2.00
2022-12-06T02:56:31.906Z,1.80
2022-12-06T02:58:59.899Z,1.60
2022-12-06T03:01:31.853Z,1.83
2022-12-06T03:04:11.790Z,2.00
2022-12-06T03:06:57.083Z,1.73
2022-12-06T03:09:37.660Z,2.17
2022-12-06T03:12:11.295Z,2.10
2022-12-06T03:14:47.337Z,2.13
2022-12-06T03:17:23.891Z,2.13
2022-12-06T03:19:56.889Z,1.70
2022-12-06T03:22:34.432Z,1.73
2022-12-06T03:25:06.466Z,1.93
2022-12-06T03:27:36.471Z,1.83
2022-12-06T03:30:08.334Z,2.50
2022-12-06T03:32:39.551Z,2.70
2022-12-06T03:35:11.451Z,3.30
2022-12-06T03:37:41.942Z,3.20
2022-12-06T03:40:17.594Z,3.00
2022-12-06T03:42:45.795Z,2.80
2022-12-06T03:45:14.838Z,2.97
2022-12-06T03:47:52.799Z,2.50
2022-12-06T03:50:24.378Z,2.97
2022-12-06T03:52:53.137Z,2.50
2022-12-06T03:55:21.063Z,2.90
2022-12-06T03:57:48.890Z,2.93
2022-12-06T04:00:17.808Z,2.30
2022-12-06T04:02:47.062Z,2.47
2022-12-06T04:05:15.333Z,2.50
2022-12-06T04:07:43.189Z,2.87
2022-12-06T04:10:11.653Z,3.03
2022-12-06T04:12:57.090Z,3.00
2022-12-06T04:15:24.927Z,3.23
2022-12-06T04:18:13.155Z,2.67
2022-12-06T04:21:00.600Z,3.17
2022-12-06T04:23:30.452Z,2.73
2022-12-06T04:25:58.318Z,3.73
2022-12-06T04:28:43.648Z,4.20
2022-12-06T04:31:29.503Z,4.13
2022-12-06T04:34:16.446Z,3.57
2022-12-06T04:37:01.934Z,3.30
2022-12-06T04:39:29.841Z,3.63
2022-12-06T04:42:15.388Z,3.70
2022-12-06T04:44:43.496Z,3.27
2022-12-06T04:47:11.827Z,3.03
2022-12-06T04:49:41.655Z,3.00
2022-12-06T04:52:10.823Z,3.53
2022-12-06T04:54:38.990Z,2.70
2022-12-06T04:57:10.922Z,3.20
2022-12-06T04:59:39.663Z,3.20
2022-12-06T05:02:09.955Z,3.27
2022-12-06T05:04:37.816Z,3.33
2022-12-06T05:07:07.003Z,3.10
2022-12-06T05:09:34.837Z,2.77
2022-12-06T05:12:02.682Z,3.07
2022-12-06T05:14:30.782Z,3.23
2022-12-06T05:16:58.871Z,3.10
2022-12-06T05:19:27.626Z,3.23
2022-12-06T05:21:55.474Z,3.23
2022-12-06T05:24:24.649Z,3.67
2022-12-06T05:26:52.448Z,2.97
2022-12-06T05:29:20.589Z,3.23
2022-12-06T05:31:48.533Z,3.00
2022-12-06T05:34:16.406Z,3.60
2022-12-06T05:36:45.845Z,3.43
2022-12-06T05:39:13.682Z,4.53
2022-12-06T05:41:42.847Z,4.93
2022-12-06T05:44:12.362Z,3.80
2022-12-06T05:46:40.188Z,3.60
2022-12-06T05:49:08.062Z,4.30
2022-12-06T05:51:35.909Z,4.40
2022-12-06T05:54:05.828Z,5.27
2022-12-06T05:56:34.204Z,5.13
2022-12-06T05:59:06.670Z,5.87
2022-12-06T06:01:34.539Z,4.73
2022-12-06T06:04:02.631Z,3.63
2022-12-06T06:06:30.522Z,4.87
2022-12-06T06:08:58.377Z,4.80
2022-12-06T06:11:26.210Z,4.77
2022-12-06T06:13:54.751Z,5.27
2022-12-06T06:16:23.957Z,5.20
2022-12-06T06:18:51.859Z,7.30
2022-12-06T06:21:19.702Z,5.77
2022-12-06T06:23:47.526Z,5.40
2022-12-06T06:26:15.402Z,7.90
2022-12-06T06:28:43.210Z,12.80
2022-12-06T06:31:11.067Z,7.33
2022-12-06T06:33:40.271Z,5.40
2022-12-06T06:36:09.046Z,4.50
2022-12-06T06:38:36.892Z,3.87
2022-12-06T06:41:05.372Z,3.53
2022-12-06T06:43:33.546Z,4.03
2022-12-06T06:46:03.035Z,9.70
2022-12-06T06:48:33.045Z,10.90
2022-12-06T06:51:05.271Z,9.17
2022-12-06T06:53:33.714Z,7.33
2022-12-06T06:56:02.693Z,7.30
2022-12-06T06:58:36.403Z,7.30
2022-12-06T07:01:06.527Z,6.70
2022-12-06T07:03:34.680Z,6.17
2022-12-06T07:06:10.237Z,5.93
2022-12-06T07:08:39.101Z,5.83
2022-12-06T07:11:07.498Z,6.67
2022-12-06T07:13:35.326Z,8.17
2022-12-06T07:16:04.492Z,14.27
2022-12-06T07:18:32.473Z,11.03
2022-12-06T07:21:03.752Z,6.13
2022-12-06T07:23:34.160Z,4.50
2022-12-06T07:26:03.768Z,4.63
2022-12-06T07:28:31.616Z,21.70
2022-12-06T07:30:59.505Z,20.67
2022-12-06T07:33:27.418Z,16.60
2022-12-06T07:36:12.422Z,12.93
2022-12-06T07:38:43.216Z,29.00
2022-12-06T07:41:31.159Z,16.87
2022-12-06T07:44:14.340Z,18.27
2022-12-06T07:46:42.210Z,15.00
2022-12-06T07:49:11.340Z,10.27
2022-12-06T07:51:40.039Z,7.20
2022-12-06T07:54:09.401Z,6.77
2022-12-06T07:56:37.372Z,6.37
2022-12-06T07:59:05.232Z,7.10
2022-12-06T08:01:33.285Z,6.00
2022-12-06T08:04:01.682Z,7.10
2022-12-06T08:06:30.859Z,8.47
2022-12-06T08:08:58.838Z,7.23
2022-12-06T08:11:28.815Z,6.63
2022-12-06T08:13:56.888Z,6.23
2022-12-06T08:16:24.847Z,9.47
2022-12-06T08:18:53.601Z,17.10
2022-12-06T08:21:21.536Z,16.23
2022-12-06T08:23:49.392Z,12.40
2022-12-06T08:26:18.694Z,11.40
2022-12-06T08:28:48.151Z,10.23
2022-12-06T08:31:18.088Z,15.83
2022-12-06T08:33:46.364Z,9.60
2022-12-06T08:36:16.262Z,7.70
2022-12-06T08:38:44.402Z,6.93
2022-12-06T08:41:27.279Z,7.30
2022-12-06T08:43:57.467Z,6.20
2022-12-06T08:46:25.743Z,7.83
2022-12-06T08:48:54.023Z,9.37
2022-12-06T08:51:22.141Z,8.10
2022-12-06T08:53:50.270Z,11.73
2022-12-06T08:56:18.090Z,8.53
2022-12-06T08:58:45.927Z,5.60
2022-12-06T09:01:17.244Z,55.87
2022-12-06T09:03:45.282Z,14.80
2022-12-06T09:06:13.114Z,15.13
2022-12-06T09:08:41.306Z,7.77
2022-12-06T09:11:10.064Z,9.93
2022-12-06T09:13:38.725Z,6.83
2022-12-06T09:16:08.036Z,6.43
2022-12-06T09:18:37.431Z,7.40
2022-12-06T09:21:06.980Z,10.53
2022-12-06T09:23:34.989Z,7.87
2022-12-06T09:26:03.194Z,8.00
2022-12-06T09:28:32.226Z,8.87
2022-12-06T09:31:00.173Z,6.70
2022-12-06T09:33:28.031Z,25.90
2022-12-06T09:35:58.127Z,23.47
2022-12-06T09:38:28.818Z,11.27
2022-12-06T09:41:05.700Z,7.60
2022-12-06T09:43:48.881Z,14.83
2022-12-06T09:46:39.125Z,12.87
2022-12-06T09:49:19.682Z,15.87
2022-12-06T09:52:03.834Z,11.57
2022-12-06T09:54:53.479Z,18.47
2022-12-06T09:57:33.810Z,10.67
2022-12-06T10:00:10.988Z,10.27
2022-12-06T10:03:05.545Z,8.50
2022-12-06T10:05:42.603Z,10.07
2022-12-06T10:08:24.236Z,23.63
2022-12-06T10:11:02.730Z,17.50
2022-12-06T10:13:47.410Z,27.83
2022-12-06T10:16:25.346Z,25.23
2022-12-06T10:19:08.203Z,17.30
2022-12-06T10:21:46.374Z,8.57
2022-12-06T10:24:28.457Z,20.33
2022-12-06T10:27:02.525Z,14.20
2022-12-06T10:29:39.051Z,13.43
2022-12-06T10:32:16.411Z,9.40
2022-12-06T10:34:53.557Z,24.37
2022-12-06T10:37:32.960Z,7.80
2022-12-06T10:40:08.139Z,20.47
2022-12-06T10:42:41.188Z,14.37
2022-12-06T10:45:38.393Z,9.07
2022-12-06T10:48:13.749Z,11.47
2022-12-06T10:50:42.902Z,14.97
2022-12-06T10:53:15.619Z,27.07
2022-12-06T10:55:50.143Z,23.97
2022-12-06T10:58:28.302Z,12.63
2022-12-06T11:00:59.810Z,7.40
2022-12-06T11:03:33.278Z,6.37
2022-12-06T11:06:08.134Z,5.83
2022-12-06T11:08:40.341Z,6.30
2022-12-06T11:11:15.898Z,6.67
2022-12-06T11:13:48.564Z,6.57
2022-12-06T11:16:22.865Z,5.83
2022-12-06T11:18:52.022Z,5.70
2022-12-06T11:21:27.604Z,5.90
2022-12-06T11:24:02.023Z,5.30
2022-12-06T11:26:39.012Z,5.03
2022-12-06T11:29:12.770Z,4.73
2022-12-06T11:31:44.678Z,5.73
2022-12-06T11:34:18.638Z,5.43
2022-12-06T11:36:47.478Z,5.17
2022-12-06T11:39:16.753Z,5.87
2022-12-06T11:41:50.102Z,6.10
2022-12-06T11:44:21.693Z,5.73
2022-12-06T11:46:54.491Z,4.77
2022-12-06T11:49:28.383Z,4.77
2022-12-06T11:51:58.732Z,5.20
2022-12-06T11:54:31.732Z,5.07
2022-12-06T11:57:12.008Z,4.60
2022-12-06T11:59:39.834Z,5.10
2022-12-06T12:02:27.839Z,5.23
2022-12-06T12:04:55.673Z,4.90
2022-12-06T12:07:25.977Z,4.90
2022-12-06T12:09:57.409Z,6.23
2022-12-06T12:12:49.425Z,5.50
2022-12-06T12:15:19.237Z,5.10
2022-12-06T12:17:49.896Z,5.10
2022-12-06T12:20:24.794Z,5.47
2022-12-06T12:22:58.185Z,5.40
2022-12-06T12:25:28.724Z,5.03
2022-12-06T12:27:58.623Z,5.30
2022-12-06T12:30:33.133Z,4.67
2022-12-06T12:33:15.666Z,4.50
2022-12-06T12:35:45.653Z,4.37
2022-12-06T12:38:22.647Z,3.97
2022-12-06T12:40:53.160Z,4.30
2022-12-06T12:43:25.406Z,3.73
2022-12-06T12:46:16.919Z,3.60
2022-12-06T12:48:47.197Z,4.40
2022-12-06T12:51:29.614Z,3.90
2022-12-06T12:54:01.096Z,4.30
2022-12-06T12:56:31.580Z,4.10
2022-12-06T12:59:03.579Z,4.47
2022-12-06T13:01:40.274Z,4.57
2022-12-06T13:04:21.694Z,4.60
2022-12-06T13:06:53.038Z,4.30
2022-12-06T13:09:26.019Z,4.43
2022-12-06T13:11:59.969Z,3.30
2022-12-06T13:14:30.481Z,3.27
2022-12-06T13:17:06.268Z,3.17
2022-12-06T13:19:37.941Z,3.47
2022-12-06T13:22:07.142Z,3.83
2022-12-06T13:24:37.474Z,3.93
2022-12-06T13:27:12.520Z,3.73
2022-12-06T13:29:45.243Z,3.43
2022-12-06T13:32:17.268Z,3.00
2022-12-06T13:34:50.289Z,3.60
2022-12-06T13:37:29.894Z,2.77
2022-12-06T13:39:58.479Z,3.40
2022-12-06T13:42:43.588Z,3.27
2022-12-06T13:45:41.999Z,2.90
2022-12-06T13:48:52.700Z,6.10
2022-12-06T13:51:43.803Z,3.33
2022-12-06T13:54:31.685Z,2.50
2022-12-06T13:57:00.895Z,2.87
2022-12-06T13:59:41.390Z,2.57
2022-12-06T14:02:52.261Z,2.90
2022-12-06T14:08:30.927Z,2.53
2022-12-06T14:11:24.486Z,2.87
2022-12-06T14:14:02.374Z,3.10
2022-12-06T14:16:35.181Z,2.80
2022-12-06T14:19:13.323Z,2.73
2022-12-06T14:21:45.263Z,3.00
2022-12-06T14:24:29.765Z,2.87
2022-12-06T14:27:05.105Z,3.13
2022-12-06T14:29:33.402Z,3.37
2022-12-06T14:32:01.290Z,3.67
2022-12-06T14:34:30.656Z,3.63
2022-12-06T14:37:00.706Z,2.80
2022-12-06T14:39:31.920Z,3.63
2022-12-06T14:42:19.489Z,3.07
2022-12-06T14:44:51.600Z,3.30
2022-12-06T14:47:21.534Z,3.33
2022-12-06T14:50:10.573Z,3.23
2022-12-06T14:52:56.722Z,2.83
2022-12-06T14:55:24.945Z,3.50
2022-12-06T14:57:57.327Z,3.00
2022-12-06T15:00:27.964Z,3.30
2022-12-06T15:03:07.199Z,3.40
2022-12-06T15:05:37.899Z,3.40
2022-12-06T15:08:33.099Z,3.13
2022-12-06T15:11:02.597Z,3.10
2022-12-06T15:13:29.945Z,2.93
2022-12-06T15:16:15.328Z,3.60
2022-12-06T15:18:45.842Z,3.40
2022-12-06T15:21:15.866Z,3.27
2022-12-06T15:23:50.874Z,3.63
2022-12-06T15:26:20.462Z,3.80
2022-12-06T15:28:48.900Z,3.70
2022-12-06T15:31:20.883Z,4.47
2022-12-06T15:33:49.686Z,6.33
2022-12-06T15:36:19.131Z,4.33
2022-12-06T15:38:47.495Z,4.97
2022-12-06T15:41:19.274Z,5.27
2022-12-06T15:43:47.749Z,4.20
2022-12-06T15:46:19.702Z,4.40
2022-12-06T15:48:48.406Z,4.90
2022-12-06T15:51:20.872Z,4.27
2022-12-06T15:53:50.925Z,4.63
2022-12-06T15:56:21.857Z,5.77
2022-12-06T15:58:50.389Z,4.20
2022-12-06T16:01:20.932Z,4.20
2022-12-06T16:03:48.831Z,5.17
2022-12-06T16:06:18.082Z,5.57
2022-12-06T16:08:46.804Z,5.00
2022-12-06T16:11:17.319Z,4.87
2022-12-06T16:13:46.760Z,4.67
2022-12-06T16:16:16.485Z,4.87
2022-12-06T16:18:44.447Z,5.00
2022-12-06T16:21:21.057Z,4.80
2022-12-06T16:24:13.175Z,5.60
2022-12-06T16:26:44.429Z,5.83
2022-12-06T16:29:16.818Z,5.73
2022-12-06T16:31:45.181Z,6.83
2022-12-06T16:34:13.592Z,7.23
2022-12-06T16:36:59.681Z,7.87
2022-12-06T16:39:27.962Z,9.03
2022-12-06T16:41:55.856Z,7.70
2022-12-06T16:44:25.529Z,8.03
2022-12-06T16:46:53.620Z,8.20
2022-12-06T16:52:11.423Z,8.33
2022-12-06T16:54:41.427Z,7.57
2022-12-06T16:57:10.283Z,8.07
2022-12-06T16:59:40.292Z,7.80
2022-12-06T17:02:27.478Z,8.13
2022-12-06T17:04:55.868Z,9.27
2022-12-06T17:07:24.006Z,9.70
2022-12-06T17:09:51.834Z,11.80
2022-12-06T17:12:19.912Z,11.00
2022-12-06T17:14:49.061Z,11.73
2022-12-06T17:17:18.267Z,10.73
2022-12-06T17:19:46.212Z,8.97
2022-12-06T17:22:16.653Z,9.57
2022-12-06T17:24:44.598Z,10.30
2022-12-06T17:27:14.750Z,9.70
2022-12-06T17:29:43.878Z,10.40
2022-12-06T17:32:13.924Z,9.23
2022-12-06T17:34:41.756Z,11.90
2022-12-06T17:37:10.082Z,11.43
2022-12-06T17:39:38.002Z,9.00
2022-12-06T17:42:23.961Z,10.17
2022-12-06T17:44:52.009Z,11.30
2022-12-06T17:47:21.395Z,11.37
2022-12-06T17:49:49.213Z,9.80
2022-12-06T17:52:17.786Z,10.73
2022-12-06T17:54:46.189Z,11.03
2022-12-06T17:57:17.952Z,10.90
2022-12-06T17:59:47.126Z,9.63
2022-12-06T18:02:16.889Z,9.77
2022-12-06T18:04:47.975Z,10.63
2022-12-06T18:07:17.540Z,9.50
2022-12-06T18:09:45.966Z,9.10
2022-12-06T18:12:15.503Z,9.43
2022-12-06T18:14:43.484Z,10.57
2022-12-06T18:17:11.682Z,9.67
2022-12-06T18:19:40.784Z,10.63
2022-12-06T18:22:10.016Z,10.23
2022-12-06T18:24:37.930Z,11.87
2022-12-06T18:27:06.231Z,11.50
2022-12-06T18:29:34.973Z,9.07
2022-12-06T18:32:04.336Z,9.83
2022-12-06T18:34:32.321Z,9.57
2022-12-06T18:37:00.284Z,10.43
2022-12-06T18:39:29.449Z,9.47
2022-12-06T18:41:58.049Z,9.07
2022-12-06T18:44:25.890Z,8.77
2022-12-06T18:46:53.972Z,8.80
2022-12-06T18:49:21.923Z,8.40
2022-12-06T18:51:49.774Z,6.70
2022-12-06T18:54:17.687Z,8.40
2022-12-06T18:56:46.830Z,7.83
2022-12-06T18:59:14.689Z,7.20
2022-12-06T19:01:42.963Z,6.50
2022-12-06T19:04:14.787Z,6.90
2022-12-06T19:06:44.349Z,6.43
2022-12-06T19:09:13.919Z,7.23
2022-12-06T19:11:43.883Z,5.43
2022-12-06T19:14:13.555Z,5.77
2022-12-06T19:16:43.532Z,6.07
2022-12-06T19:19:16.677Z,7.37
2022-12-06T19:21:46.023Z,7.03
2022-12-06T19:24:15.860Z,6.83
2022-12-06T19:26:43.952Z,6.77
2022-12-06T19:29:13.694Z,6.00
2022-12-06T19:31:41.566Z,6.43
2022-12-06T19:34:16.227Z,6.67
2022-12-06T19:36:44.384Z,7.13
2022-12-06T19:39:13.760Z,7.07
2022-12-06T19:41:56.256Z,7.47
2022-12-06T19:44:26.096Z,6.83
2022-12-06T19:46:54.018Z,6.93
2022-12-06T19:49:23.983Z,7.37
2022-12-06T19:51:52.795Z,7.53
2022-12-06T19:54:23.263Z,5.60
2022-12-06T19:56:53.249Z,7.53
2022-12-06T19:59:21.485Z,6.33
2022-12-06T20:01:51.520Z,12.27
2022-12-06T20:04:21.133Z,7.07
2022-12-06T20:06:49.129Z,7.27
2022-12-06T20:09:17.268Z,6.57
2022-12-06T20:12:05.218Z,7.63
2022-12-06T20:14:39.045Z,6.93
2022-12-06T20:17:09.928Z,6.20
2022-12-06T20:19:38.207Z,6.63
2022-12-06T20:22:06.129Z,6.30
2022-12-06T20:24:34.060Z,7.97
2022-12-06T20:27:01.965Z,7.00
2022-12-06T20:29:30.012Z,6.43
2022-12-06T20:32:00.048Z,6.40
2022-12-06T20:34:33.934Z,5.83
2022-12-06T20:37:04.084Z,6.90
2022-12-06T20:39:34.986Z,5.50
2022-12-06T20:42:03.946Z,5.70
2022-12-06T20:44:31.823Z,5.97
2022-12-06T20:47:00.119Z,5.50
2022-12-06T20:49:29.469Z,5.80
2022-12-06T20:51:58.014Z,5.57
2022-12-06T20:54:25.806Z,7.03
2022-12-06T20:56:53.731Z,7.30
2022-12-06T20:59:22.415Z,5.40
2022-12-06T21:01:50.496Z,5.50
2022-12-06T21:04:18.460Z,5.87
2022-12-06T21:06:47.662Z,5.67
2022-12-06T21:09:15.540Z,6.47
2022-12-06T21:11:43.469Z,6.97
2022-12-06T21:14:13.226Z,6.03
2022-12-06T21:16:42.844Z,5.37
2022-12-06T21:19:14.150Z,6.23
2022-12-06T21:21:45.831Z,5.47
2022-12-06T21:24:17.430Z,4.80
2022-12-06T21:26:45.597Z,5.57
2022-12-06T21:29:16.803Z,7.03
2022-12-06T21:31:45.206Z,7.20
2022-12-06T21:34:13.872Z,8.10
2022-12-06T21:36:42.168Z,7.83
2022-12-06T21:39:11.268Z,6.43
2022-12-06T21:41:40.766Z,8.70
2022-12-06T21:44:08.598Z,8.57
2022-12-06T21:46:36.465Z,7.77
2022-12-06T21:49:04.349Z,9.77
2022-12-06T21:51:32.834Z,7.03
2022-12-06T21:54:01.393Z,6.30
2022-12-06T21:56:30.746Z,6.87
2022-12-06T21:59:01.103Z,6.67
2022-12-06T22:01:30.553Z,5.47
2022-12-06T22:04:02.078Z,5.53
2022-12-06T22:06:31.327Z,5.17
2022-12-06T22:09:00.503Z,5.77
2022-12-06T22:11:29.584Z,6.20
2022-12-06T22:14:00.038Z,6.83
2022-12-06T22:16:28.652Z,6.30
2022-12-06T22:18:56.790Z,6.10
2022-12-06T22:21:27.230Z,5.87
2022-12-06T22:23:57.346Z,5.93
2022-12-06T22:26:28.130Z,5.63
2022-12-06T22:28:56.310Z,6.63
2022-12-06T22:31:27.884Z,5.47
2022-12-06T22:33:57.996Z,5.27
2022-12-06T22:36:26.093Z,5.40
2022-12-06T22:38:55.653Z,4.87
2022-12-06T22:41:24.410Z,5.00
2022-12-06T22:43:53.457Z,4.63
2022-12-06T22:46:21.924Z,4.93
2022-12-06T22:48:51.316Z,5.13
2022-12-06T22:51:21.017Z,5.33
2022-12-06T22:53:52.689Z,5.03
2022-12-06T22:56:20.809Z,5.17
2022-12-06T22:58:49.212Z,5.70
2022-12-06T23:01:19.749Z,4.57
2022-12-06T23:03:48.928Z,4.87
2022-12-06T23:06:20.698Z,5.40
2022-12-06T23:08:48.675Z,5.00
2022-12-06T23:11:18.787Z,4.87
2022-12-06T23:13:47.135Z,4.93
2022-12-06T23:16:16.446Z,5.10
2022-12-06T23:18:44.664Z,4.77
2022-12-06T23:21:15.981Z,4.27
2022-12-06T23:23:47.666Z,4.93
2022-12-06T23:26:17.405Z,4.63
2022-12-06T23:28:46.382Z,4.73
2022-12-06T23:31:16.929Z,5.50
2022-12-06T23:33:46.248Z,5.27
2022-12-06T23:36:15.871Z,4.90
2022-12-06T23:38:45.598Z,4.50
2022-12-06T23:41:15.476Z,4.47
2022-12-06T23:43:43.538Z,4.80
2022-12-06T23:46:12.845Z,5.03
2022-12-06T23:48:40.669Z,4.63
2022-12-06T23:51:11.404Z,5.50
2022-12-06T23:53:40.080Z,5.03
2022-12-06T23:56:12.148Z,4.23
2022-12-06T23:58:40.745Z,4.80
